Flight Track Log - Related Links

Times and Time Zones

All times are in EDT time to prevent confusion due to time zone crossing. See the SWA2058 flight status page for this flight to view local times or setup timezone preferences in your user account.

Time Position Orientation Groundspeed Altitude Reporting Facility
EDT Latitude Longitude Course Direction KTS km/h feet Rate Location/Type
Sat 19:06:02 39.4667 -119.7667 138° Southeast 184 341 6.100  Level Northern Cal TRACON
Sat 19:07:02 39.4000 -119.7667 180° South 237 439 9.400 3.130 Climbing Northern Cal TRACON
Sat 19:07:34 39.3611 -119.7511 163° South 315 583 10.900 2.774 Climbing Oakland Center
Sat 19:08:35 39.2986 -119.6722 136° Southeast 320 592 13.700 3.049 Climbing Oakland Center
Sat 19:09:36 39.2264 -119.5814 136° Southeast 355 658 17.100 3.197 Climbing Oakland Center
Sat 19:10:37 39.1503 -119.4794 134° Southeast 385 713 20.200 3.098 Climbing Oakland Center
Sat 19:11:00 39.2144 -119.2449 138° Southeast  Level FlightAware Approximate
Sat 19:11:38 39.0692 -119.3714 134° Southeast 411 761 23.400  Level Oakland Center
Sat 19:12:39 38.9825 -119.2586 135° Southeast 438 811 26.200 2.754 Climbing Oakland Center
Sat 19:13:40 38.8950 -119.1425 134° Southeast 452 837 29.000 2.361 Climbing Oakland Center
Sat 19:14:41 38.7900 -119.0028 134° Southeast 455 843 31.000 984 Climbing Oakland Center
Sat 19:15:42 38.6975 -118.8825 135° Southeast 469 869 31.000 195 Level Oakland Center
Sat 19:16:44 38.6050 -118.7647 135° Southeast 471 872 31.400 976 Climbing Oakland Center
Sat 19:17:45 38.5136 -118.6458 134° Southeast 470 871 33.000 787 Climbing Oakland Center
Sat 19:18:46 38.4181 -118.5225 135° Southeast 486 900 33.000  Level Oakland Center
Sat 19:19:47 38.3208 -118.3992 135° Southeast 493 912 33.000  Level Oakland Center
Sat 19:20:48 38.2258 -118.2772 135° Southeast 487 901 33.000  Level Oakland Center
Sat 19:21:49 38.1194 -118.1419 135° Southeast 493 912 33.000  Level Oakland Center
Sat 19:22:50 38.0244 -118.0206 135° Southeast 487 901 33.000  Level Oakland Center
Sat 19:23:51 37.9269 -117.8975 135° Southeast 495 917 33.000  Level Oakland Center
Sat 19:24:52 37.8303 -117.7764 135° Southeast 491 909 33.000  Level Oakland Center
Sat 19:25:54 37.7336 -117.6553 135° Southeast 492 911 33.000  Level Oakland Center
Sat 19:26:55 37.6372 -117.5342 135° Southeast 493 912 33.000  Level Oakland Center
Sat 19:27:56 37.5403 -117.4131 135° Southeast 493 912 33.000  Level Oakland Center
Sat 19:28:57 37.4217 -117.2697 136° Southeast 493 912 33.000  Level Oakland Center
Sat 19:29:58 37.3083 -117.1758 147° Southeast 489 906 33.000  Level Oakland Center
Sat 19:30:59 37.1967 -117.0789 145° Southeast 490 908 33.000 -344 Level Oakland Center
Sat 19:32:00 37.0850 -116.9869 147° Southeast 482 893 32.300 -1.475 Descending Oakland Center
Sat 19:33:01 36.9758 -116.8928 145° Southeast 478 885 30.000 -2.213 Descending Oakland Center
Sat 19:34:02 36.8686 -116.8050 147° Southeast 467 864 27.800 -1.967 Descending Oakland Center
Sat 19:35:03 36.7747 -116.7100 141° Southeast 444 822 26.000 -1.721 Descending Oakland Center
Sat 19:36:04 36.6981 -116.5978 130° Southeast 432 800 24.300 -1.770 Descending Oakland Center
Sat 19:37:05 36.6233 -116.4922 131° Southeast 421 779 22.400 -1.623 Descending Oakland Center
Sat 19:38:06 36.5519 -116.3878 130° Southeast 409 758 21.000 -1.105 Descending Oakland Center
Sat 19:38:21 36.5272 -116.3544 133° Southeast 396 734 21.000  Level Los Angeles Center
Sat 19:39:23 36.4556 -116.2569 132° Southeast 386 715 21.000 -242 Level Los Angeles Center
Sat 19:40:25 36.3808 -116.1494 131° Southeast 397 735 20.500 -1.113 Descending Los Angeles Center
Sat 19:41:27 36.3083 -116.0453 131° Southeast 375 695 18.700 -1.756 Descending Los Angeles Center
Sat 19:42:28 36.2397 -115.9519 132° Southeast 369 684 16.900 -1.753 Descending Los Angeles Center
Sat 19:42:56 36.2067 -115.9106 135° Southeast 364 674 16.100 -871 Descending Los Angeles Center
Sat 19:43:30 36.1822 -115.8417 114° Southeast 353 653 16.000 -492 Descending Los Angeles Center
Sat 19:43:57 36.1678 -115.7981 112° Southeast 356 660 15.600 -1.355 Descending Los Angeles Center
Sat 19:44:32 36.1461 -115.7300 111° Southeast 352 652 14.600 -1.574 Descending Los Angeles Center
Sat 19:44:58 36.1283 -115.6831 115° Southeast 348 644 14.000 -581 Descending Los Angeles Center
Sat 19:45:34 36.1114 -115.6258 110° East 326 604 14.000  Level Los Angeles Center
Sat 19:45:59 36.0867 -115.5875 129° Southeast 332 615 14.000  Level Los Angeles Center
Sat 19:46:36 36.0539 -115.5558 142° Southeast 296 549 14.000 -295 Level Los Angeles Center
Sat 19:47:00 36.0158 -115.5494 172° South 309 573 13.700 -787 Descending Los Angeles Center
Sat 19:47:37 35.9769 -115.5394 168° South 289 536 13.200 -1.091 Descending Los Angeles Center
Sat 19:48:06 35.9256 -115.5308 172° South 287 531 12.500 -1.065 Descending Los Angeles Center
Sat 19:48:39 35.8975 -115.5169 158° South 291 539 12.100 -1.161 Descending Los Angeles Center
Sat 19:49:08 35.8492 -115.4972 162° South 289 536 11.300 -1.355 Descending Los Angeles Center
Sat 19:49:41 35.8078 -115.4794 161° South 286 529 10.700 -1.100 Descending Los Angeles Center
Sat 19:50:08 35.7767 -115.4706 167° South 280 518 10.200 -968 Descending Los Angeles Center
Sat 19:50:43 35.7344 -115.4517 160° South 281 520 9.700 -885 Descending Los Angeles Center
Sat 19:51:09 35.7139 -115.4300 139° Southeast 257 476 9.300 -968 Descending Los Angeles Center
Sat 19:51:45 35.7233 -115.3847 76° East 267 494 8.700 -1.082 Descending Los Angeles Center
Sat 19:52:10 35.7444 -115.3617 42° Northeast 245 454 8.200 -871 Descending Los Angeles Center
Sat 19:52:47 35.7778 -115.3369 31° Northeast 250 463 7.800 -590 Descending Los Angeles Center
Sat 19:53:11 35.8072 -115.3228 21° North 237 439 7.600 -290 Descending Los Angeles Center
Sat 19:53:49 35.8367 -115.3050 26° Northeast 241 446 7.500 -590 Descending Los Angeles Center
Sat 19:54:12 35.8650 -115.2906 22° Northeast 227 420 7.000 -1.065 Descending Los Angeles Center
Sat 19:54:51 35.8925 -115.2739 26° Northeast 232 430 6.400 -1.180 Descending Los Angeles Center
Sat 19:55:13 35.9147 -115.2611 25° Northeast 206 381 5.800 -1.377 Descending Los Angeles Center
Sat 19:55:52 35.9531 -115.2389 25° Northeast 216 401 5.000 -1.100 Descending Los Angeles Center
Sat 19:56:13 35.9644 -115.2314 28° Northeast 198 367 4.700 -677 Descending Los Angeles Center
Sat 19:56:54 35.9944 -115.2153 23° Northeast 210 389 4.300 -1.082 Descending Los Angeles Center
Sat 19:57:14 36.0147 -115.2044 23° Northeast 191 354 3.600 -1.258 Descending Los Angeles Center
Sat 19:57:56 36.0431 -115.1894 23° Northeast 148 274 3.000 -885 Descending Los Angeles Center
Sat 19:58:15 36.0550 -115.1806 31° Northeast 151 280 2.700 -290 Descending Los Angeles Center
Sat 19:58:58 36.0733 -115.1689 27° Northeast 136 253 2.700  Level Los Angeles Center
Sat 20:00:00 36.0801 -115.1523 95° East  Level Estimated
Sat 20:07:00 36.0801 -115.1523 270° West  Level Estimated

Login

Don't have an account? Register now (free) for customized features, flight alerts, and more!